createdAt,value
2018-07-25T00:01:05.967Z,24.40
2018-07-25T00:03:35.107Z,24.40
2018-07-25T00:06:04.226Z,24.30
2018-07-25T00:11:02.172Z,24.30
2018-07-25T00:13:31.416Z,24.30
2018-07-25T00:16:00.879Z,24.20
2018-07-25T00:18:30.373Z,24.20
2018-07-25T00:21:00.059Z,24.20
2018-07-25T00:23:29.203Z,24.20
2018-07-25T00:26:03.872Z,24.20
2018-07-25T00:28:34.283Z,24.20
2018-07-25T00:33:32.324Z,24.10
2018-07-25T00:36:01.491Z,24.10
2018-07-25T00:38:30.922Z,24.10
2018-07-25T00:41:00.258Z,24.20
2018-07-25T00:43:29.325Z,24.20
2018-07-25T00:45:58.976Z,24.10
2018-07-25T00:48:28.191Z,24.10
2018-07-25T00:50:57.290Z,24.00
2018-07-25T00:53:26.459Z,23.90
2018-07-25T00:55:55.615Z,23.90
2018-07-25T00:58:24.798Z,23.90
2018-07-25T01:00:54.063Z,23.90
2018-07-25T01:03:23.719Z,23.90
2018-07-25T01:05:52.815Z,23.90
2018-07-25T01:08:22.527Z,23.90
2018-07-25T01:10:51.722Z,23.90
2018-07-25T01:13:20.809Z,23.90
2018-07-25T01:15:50.054Z,23.90
2018-07-25T01:18:19.274Z,23.80
2018-07-25T01:20:48.349Z,23.80
2018-07-25T01:23:17.499Z,23.80
2018-07-25T01:25:46.614Z,23.70
2018-07-25T01:28:16.667Z,23.70
2018-07-25T01:30:45.723Z,23.70
2018-07-25T01:33:14.879Z,23.70
2018-07-25T01:35:43.954Z,23.60
2018-07-25T01:40:42.693Z,23.00
2018-07-25T01:43:11.887Z,22.80
2018-07-25T01:45:41.125Z,22.80
2018-07-25T01:48:10.285Z,22.90
2018-07-25T01:50:39.605Z,22.90
2018-07-25T01:53:08.703Z,23.00
2018-07-25T01:55:38.127Z,23.10
2018-07-25T01:58:07.218Z,23.10
2018-07-25T02:00:37.013Z,23.00
2018-07-25T02:03:06.833Z,23.00
2018-07-25T02:05:36.072Z,23.00
2018-07-25T02:08:05.393Z,23.00
2018-07-25T02:10:38.238Z,23.00
2018-07-25T02:13:08.173Z,23.00
2018-07-25T02:15:37.302Z,22.90
2018-07-25T02:18:07.402Z,22.40
2018-07-25T02:20:37.326Z,21.90
2018-07-25T02:23:06.460Z,21.60
2018-07-25T02:25:35.686Z,21.20
2018-07-25T02:28:05.831Z,20.90
2018-07-25T02:30:35.023Z,20.50
2018-07-25T02:33:04.133Z,20.30
2018-07-25T02:35:33.572Z,20.20
2018-07-25T02:38:02.715Z,20.00
2018-07-25T02:40:31.911Z,20.00
2018-07-25T02:43:01.791Z,20.10
2018-07-25T02:45:36.283Z,20.10
2018-07-25T02:48:06.048Z,20.20
2018-07-25T02:50:35.570Z,20.30
2018-07-25T02:53:05.057Z,20.50
2018-07-25T02:58:03.321Z,20.80
2018-07-25T03:00:32.663Z,20.80
2018-07-25T03:03:02.188Z,20.80
2018-07-25T03:08:00.251Z,20.90
2018-07-25T03:10:29.972Z,21.00
2018-07-25T03:12:59.279Z,21.00
2018-07-25T03:15:28.903Z,21.10
2018-07-25T03:17:58.085Z,21.10
2018-07-25T03:20:27.687Z,21.10
2018-07-25T03:22:56.839Z,21.20
2018-07-25T03:25:26.528Z,21.20
2018-07-25T03:27:56.025Z,21.10
2018-07-25T03:30:25.153Z,21.10
2018-07-25T03:32:54.322Z,21.10
2018-07-25T03:35:23.511Z,21.20
2018-07-25T03:37:52.778Z,21.20
2018-07-25T03:40:22.170Z,21.20
2018-07-25T03:42:51.407Z,21.10
2018-07-25T03:45:20.548Z,21.10
2018-07-25T03:47:49.652Z,21.00
2018-07-25T03:50:18.761Z,21.00
2018-07-25T03:52:47.841Z,20.90
2018-07-25T03:55:16.993Z,20.90
2018-07-25T03:57:46.539Z,20.90
2018-07-25T04:00:15.815Z,20.80
2018-07-25T04:02:45.063Z,20.80
2018-07-25T04:07:45.754Z,20.70
2018-07-25T04:10:15.254Z,20.70
2018-07-25T04:12:45.170Z,20.70
2018-07-25T04:15:14.362Z,20.70
2018-07-25T04:17:47.631Z,20.70
2018-07-25T04:22:46.667Z,20.80
2018-07-25T04:25:16.077Z,20.90
2018-07-25T04:27:46.481Z,20.90
2018-07-25T04:30:17.269Z,20.90
2018-07-25T04:32:47.386Z,21.00
2018-07-25T04:35:17.051Z,21.00
2018-07-25T04:37:46.152Z,21.10
2018-07-25T04:40:15.240Z,21.20
2018-07-25T04:42:44.398Z,21.30
2018-07-25T04:45:13.572Z,21.40
2018-07-25T04:47:42.718Z,21.40
2018-07-25T04:50:11.932Z,21.50
2018-07-25T04:52:41.279Z,21.60
2018-07-25T04:55:10.401Z,21.80
2018-07-25T04:57:39.706Z,21.90
2018-07-25T05:00:09.069Z,22.10
2018-07-25T05:02:41.000Z,22.20
2018-07-25T05:05:10.353Z,22.40
2018-07-25T05:07:39.578Z,22.50
2018-07-25T05:10:09.877Z,22.60
2018-07-25T05:12:39.059Z,22.70
2018-07-25T05:15:08.410Z,22.90
2018-07-25T05:17:37.616Z,23.10
2018-07-25T05:20:07.754Z,23.30
2018-07-25T05:22:36.975Z,23.40
2018-07-25T05:25:06.141Z,23.50
2018-07-25T05:27:35.408Z,23.50
2018-07-25T05:30:04.921Z,23.50
2018-07-25T05:32:34.431Z,23.50
2018-07-25T05:35:04.817Z,23.50
2018-07-25T05:37:34.027Z,23.50
2018-07-25T05:40:03.244Z,23.50
2018-07-25T05:42:32.311Z,23.50
2018-07-25T05:45:01.804Z,23.50
2018-07-25T05:47:30.902Z,23.60
2018-07-25T05:50:00.275Z,23.60
2018-07-25T05:52:29.353Z,23.60
2018-07-25T05:54:58.551Z,23.70
2018-07-25T05:57:27.911Z,23.80
2018-07-25T05:59:57.064Z,23.90
2018-07-25T06:02:26.433Z,24.00
2018-07-25T06:04:55.664Z,24.00
2018-07-25T06:07:24.787Z,24.10
2018-07-25T06:09:53.959Z,24.20
2018-07-25T06:12:23.377Z,24.30
2018-07-25T06:14:52.749Z,24.30
2018-07-25T06:17:21.785Z,24.30
2018-07-25T06:19:51.001Z,24.40
2018-07-25T06:22:20.199Z,24.50
2018-07-25T06:24:49.497Z,24.60
2018-07-25T06:27:19.271Z,24.70
2018-07-25T06:29:48.539Z,24.80
2018-07-25T06:32:17.895Z,25.00
2018-07-25T06:34:47.106Z,25.10
2018-07-25T06:37:16.717Z,25.30
2018-07-25T06:39:45.879Z,25.40
2018-07-25T06:42:15.243Z,25.30
2018-07-25T06:44:45.306Z,25.20
2018-07-25T06:47:14.527Z,25.20
2018-07-25T06:49:43.793Z,25.20
2018-07-25T06:52:12.972Z,25.10
2018-07-25T06:54:42.144Z,25.10
2018-07-25T06:57:11.281Z,25.00
2018-07-25T06:59:40.287Z,25.00
2018-07-25T07:02:09.645Z,24.90
2018-07-25T07:04:38.716Z,24.90
2018-07-25T07:07:08.703Z,25.00
2018-07-25T07:09:37.853Z,25.00
2018-07-25T07:12:07.194Z,25.00
2018-07-25T07:14:36.341Z,25.00
2018-07-25T07:17:05.563Z,25.10
2018-07-25T07:19:34.726Z,25.20
2018-07-25T07:22:03.877Z,25.20
2018-07-25T07:27:02.139Z,25.50
2018-07-25T07:29:31.606Z,25.60
2018-07-25T07:32:00.920Z,25.70
2018-07-25T07:34:30.123Z,25.80
2018-07-25T07:36:59.644Z,25.90
2018-07-25T07:39:28.857Z,26.00
2018-07-25T07:41:58.280Z,26.10
2018-07-25T07:44:28.768Z,26.20
2018-07-25T07:46:58.114Z,26.40
2018-07-25T07:49:27.377Z,26.60
2018-07-25T07:51:56.732Z,26.70
2018-07-25T07:54:26.089Z,27.00
2018-07-25T07:56:55.515Z,27.00
2018-07-25T07:59:24.961Z,27.10
2018-07-25T08:01:54.242Z,27.30
2018-07-25T08:04:23.800Z,27.50
2018-07-25T08:06:52.966Z,27.60
2018-07-25T08:09:22.213Z,27.60
2018-07-25T08:11:51.359Z,27.70
2018-07-25T08:14:20.497Z,27.90
2018-07-25T08:16:49.838Z,28.00
2018-07-25T08:19:19.095Z,28.10
2018-07-25T08:21:48.303Z,28.20
2018-07-25T08:24:17.410Z,28.30
2018-07-25T08:26:46.855Z,28.40
2018-07-25T08:29:16.013Z,28.50
2018-07-25T08:31:45.183Z,28.40
2018-07-25T08:34:14.613Z,28.40
2018-07-25T08:36:43.777Z,28.40
2018-07-25T08:39:14.339Z,28.50
2018-07-25T08:41:43.624Z,28.50
2018-07-25T08:44:12.684Z,28.50
2018-07-25T08:46:42.137Z,28.60
2018-07-25T08:49:11.427Z,28.60
2018-07-25T08:51:40.511Z,28.70
2018-07-25T09:01:36.205Z,28.90
2018-07-25T09:04:05.663Z,29.00
2018-07-25T09:06:35.009Z,29.00
2018-07-25T09:09:07.042Z,29.10
2018-07-25T09:11:36.608Z,29.20
2018-07-25T09:14:07.287Z,29.20
2018-07-25T09:16:36.371Z,29.30
2018-07-25T09:19:06.150Z,29.40
2018-07-25T09:21:35.241Z,29.60
2018-07-25T09:24:04.572Z,29.70
2018-07-25T09:26:33.934Z,29.80
2018-07-25T09:29:03.166Z,30.00
2018-07-25T09:31:32.399Z,30.00
2018-07-25T09:34:02.091Z,29.90
2018-07-25T09:36:31.920Z,29.80
2018-07-25T09:39:01.077Z,29.80
2018-07-25T09:41:30.439Z,29.80
2018-07-25T09:43:59.812Z,29.90
2018-07-25T09:46:29.244Z,29.90
2018-07-25T09:48:58.305Z,30.00
2018-07-25T09:51:27.520Z,30.10
2018-07-25T09:53:56.655Z,30.10
2018-07-25T09:56:26.519Z,30.30
2018-07-25T09:58:55.879Z,30.40
2018-07-25T10:01:24.994Z,30.50
2018-07-25T10:03:54.920Z,30.40
2018-07-25T10:06:24.013Z,30.40
2018-07-25T10:08:54.300Z,30.50
2018-07-25T10:11:24.120Z,30.50
2018-07-25T10:13:54.595Z,30.60
2018-07-25T10:18:52.861Z,30.80
2018-07-25T10:21:21.971Z,30.90
2018-07-25T10:23:51.310Z,30.90
2018-07-25T10:26:20.576Z,31.10
2018-07-25T10:28:49.920Z,31.30
2018-07-25T10:31:19.651Z,31.50
2018-07-25T10:33:48.692Z,31.60
2018-07-25T10:36:17.802Z,31.70
2018-07-25T10:38:47.372Z,31.90
2018-07-25T10:41:16.570Z,31.90
2018-07-25T10:43:46.457Z,32.00
2018-07-25T10:46:16.617Z,32.00
2018-07-25T10:48:45.928Z,31.90
2018-07-25T10:51:15.121Z,31.90
2018-07-25T10:53:44.237Z,31.80
2018-07-25T10:56:13.462Z,31.80
2018-07-25T10:58:42.729Z,31.80
2018-07-25T11:01:11.943Z,31.80
2018-07-25T11:03:41.537Z,31.80
2018-07-25T11:06:11.874Z,31.80
2018-07-25T11:08:40.962Z,31.80
2018-07-25T11:11:10.100Z,31.90
2018-07-25T11:13:39.334Z,32.10
2018-07-25T11:16:08.759Z,32.20
2018-07-25T11:18:38.627Z,32.20
2018-07-25T11:21:08.379Z,32.20
2018-07-25T11:23:37.605Z,32.20
2018-07-25T11:26:06.879Z,32.20
2018-07-25T11:31:04.835Z,32.00
2018-07-25T11:33:34.102Z,32.10
2018-07-25T11:36:03.752Z,32.10
2018-07-25T11:38:32.943Z,32.30
2018-07-25T11:41:02.245Z,32.30
2018-07-25T11:43:31.310Z,32.40
2018-07-25T11:46:00.497Z,32.40
2018-07-25T11:48:30.819Z,32.50
2018-07-25T11:50:59.983Z,32.40
2018-07-25T11:53:29.100Z,32.40
2018-07-25T11:55:58.377Z,32.40
2018-07-25T11:58:27.681Z,32.40
2018-07-25T12:00:56.992Z,32.60
2018-07-25T12:03:26.090Z,32.80
2018-07-25T12:05:55.295Z,32.80
2018-07-25T12:08:24.543Z,32.70
2018-07-25T12:10:53.814Z,32.90
2018-07-25T12:13:23.127Z,33.10
2018-07-25T12:15:52.380Z,33.10
2018-07-25T12:18:21.591Z,33.10
2018-07-25T12:20:50.667Z,33.00
2018-07-25T12:23:19.971Z,32.90
2018-07-25T12:25:49.174Z,32.90
2018-07-25T12:28:18.303Z,33.00
2018-07-25T12:30:47.402Z,33.10
2018-07-25T12:33:16.631Z,33.30
2018-07-25T12:38:14.697Z,33.50
2018-07-25T12:40:44.554Z,33.50
2018-07-25T12:43:13.710Z,33.50
2018-07-25T12:45:43.257Z,33.50
2018-07-25T12:48:13.287Z,33.70
2018-07-25T12:50:42.353Z,33.80
2018-07-25T12:53:11.581Z,33.90
2018-07-25T12:55:40.667Z,34.00
2018-07-25T12:58:10.122Z,34.00
2018-07-25T13:00:39.258Z,34.00
2018-07-25T13:05:37.518Z,34.10
2018-07-25T13:08:06.642Z,34.00
2018-07-25T13:10:35.981Z,34.00
2018-07-25T13:13:05.129Z,34.00
2018-07-25T13:15:34.467Z,33.90
2018-07-25T13:18:03.693Z,33.90
2018-07-25T13:20:33.134Z,33.90
2018-07-25T13:23:02.567Z,34.10
2018-07-25T13:25:31.766Z,34.30
2018-07-25T13:28:01.021Z,34.50
2018-07-25T13:30:30.434Z,34.60
2018-07-25T13:32:59.736Z,34.70
2018-07-25T13:35:29.053Z,34.70
2018-07-25T13:37:58.529Z,34.70
2018-07-25T13:40:28.794Z,34.90
2018-07-25T13:45:27.953Z,35.20
2018-07-25T13:47:57.074Z,35.30
2018-07-25T13:50:26.565Z,35.20
2018-07-25T13:52:55.917Z,35.00
2018-07-25T13:55:25.210Z,34.60
2018-07-25T13:57:54.559Z,34.60
2018-07-25T14:00:24.178Z,34.50
2018-07-25T14:02:53.328Z,34.60
2018-07-25T14:05:22.602Z,34.60
2018-07-25T14:07:52.486Z,34.90
2018-07-25T14:10:21.844Z,35.00
2018-07-25T14:12:51.188Z,35.20
2018-07-25T14:15:20.402Z,35.30
2018-07-25T14:17:50.246Z,35.40
2018-07-25T14:20:19.635Z,35.30
2018-07-25T14:22:48.782Z,35.60
2018-07-25T14:25:18.054Z,35.90
2018-07-25T14:27:47.494Z,36.20
2018-07-25T14:30:16.926Z,36.40
2018-07-25T14:35:14.881Z,36.60
2018-07-25T14:37:44.076Z,36.70
2018-07-25T14:40:13.273Z,36.80
2018-07-25T14:42:42.587Z,36.80
2018-07-25T14:45:11.979Z,36.60
2018-07-25T14:47:41.384Z,36.20
2018-07-25T14:50:10.511Z,36.10
2018-07-25T14:52:39.773Z,35.90
2018-07-25T14:55:09.018Z,35.60
2018-07-25T14:57:38.253Z,35.30
2018-07-25T15:00:07.791Z,35.10
2018-07-25T15:02:37.188Z,34.80
2018-07-25T15:05:06.253Z,34.80
2018-07-25T15:07:35.525Z,35.20
2018-07-25T15:10:05.558Z,35.50
2018-07-25T15:12:39.916Z,35.90
2018-07-25T15:15:09.879Z,36.30
2018-07-25T15:17:39.119Z,36.40
2018-07-25T15:20:09.634Z,36.60
2018-07-25T15:22:39.567Z,36.90
2018-07-25T15:25:09.237Z,37.10
2018-07-25T15:27:39.199Z,36.90
2018-07-25T15:30:09.752Z,37.20
2018-07-25T15:32:38.923Z,37.20
2018-07-25T15:35:08.782Z,37.20
2018-07-25T15:37:38.397Z,37.40
2018-07-25T15:40:08.207Z,37.30
2018-07-25T15:42:37.324Z,37.10
2018-07-25T15:45:06.946Z,37.20
2018-07-25T15:47:36.241Z,37.40
2018-07-25T15:50:06.034Z,37.50
2018-07-25T15:52:35.265Z,37.60
2018-07-25T15:55:04.602Z,37.70
2018-07-25T15:57:34.179Z,37.60
2018-07-25T16:00:03.485Z,37.60
2018-07-25T16:02:32.854Z,37.60
2018-07-25T16:05:02.172Z,37.80
2018-07-25T16:07:31.341Z,38.00
2018-07-25T16:10:00.557Z,38.20
2018-07-25T16:12:29.621Z,38.10
2018-07-25T16:14:58.687Z,37.90
2018-07-25T16:17:28.024Z,37.80
2018-07-25T16:19:57.183Z,37.70
2018-07-25T16:22:26.707Z,37.80
2018-07-25T16:24:56.029Z,37.80
2018-07-25T16:27:25.371Z,37.80
2018-07-25T16:29:54.759Z,37.60
2018-07-25T16:32:25.071Z,37.60
2018-07-25T16:34:54.227Z,37.40
2018-07-25T16:37:23.334Z,37.00
2018-07-25T16:39:52.737Z,36.80
2018-07-25T16:42:22.484Z,36.90
2018-07-25T16:44:51.731Z,36.70
2018-07-25T16:47:20.909Z,36.40
2018-07-25T16:49:50.250Z,36.40
2018-07-25T16:52:19.479Z,36.10
2018-07-25T16:54:48.850Z,36.20
2018-07-25T16:57:18.509Z,35.90
2018-07-25T16:59:47.764Z,35.90
2018-07-25T17:02:16.992Z,35.90
2018-07-25T17:04:46.167Z,36.10
2018-07-25T17:07:15.472Z,36.10
2018-07-25T17:09:44.681Z,36.10
2018-07-25T17:12:13.839Z,36.20
2018-07-25T17:14:43.023Z,36.10
2018-07-25T17:19:46.980Z,35.80
2018-07-25T17:24:45.181Z,35.50
2018-07-25T17:27:14.489Z,35.60
2018-07-25T17:29:44.254Z,35.90
2018-07-25T17:32:13.791Z,36.00
2018-07-25T17:34:43.042Z,36.10
2018-07-25T17:37:12.195Z,36.10
2018-07-25T17:39:41.837Z,35.80
2018-07-25T17:42:11.240Z,35.80
2018-07-25T17:44:40.725Z,35.60
2018-07-25T17:47:10.582Z,35.40
2018-07-25T17:49:39.686Z,35.30
2018-07-25T17:52:08.992Z,35.50
2018-07-25T17:54:38.152Z,35.60
2018-07-25T17:57:07.331Z,35.60
2018-07-25T17:59:36.645Z,35.30
2018-07-25T18:02:05.820Z,34.80
2018-07-25T18:04:34.953Z,34.30
2018-07-25T18:07:05.090Z,33.70
2018-07-25T18:09:34.937Z,33.20
2018-07-25T18:12:04.323Z,32.80
2018-07-25T18:14:33.527Z,32.40
2018-07-25T18:17:03.003Z,32.30
2018-07-25T18:19:33.206Z,32.10
2018-07-25T18:22:02.811Z,32.00
2018-07-25T18:24:32.005Z,31.90
2018-07-25T18:27:01.676Z,31.80
2018-07-25T18:29:30.876Z,31.70
2018-07-25T18:32:00.051Z,31.60
2018-07-25T18:34:29.205Z,31.50
2018-07-25T18:36:59.128Z,31.40
2018-07-25T18:39:28.428Z,31.30
2018-07-25T18:41:58.203Z,31.30
2018-07-25T18:44:27.272Z,31.30
2018-07-25T18:46:56.427Z,31.20
2018-07-25T18:49:25.558Z,31.20
2018-07-25T18:51:54.882Z,31.20
2018-07-25T18:54:24.073Z,31.20
2018-07-25T18:56:53.271Z,31.20
2018-07-25T18:59:22.693Z,31.20
2018-07-25T19:01:51.797Z,31.30
2018-07-25T19:04:20.918Z,31.30
2018-07-25T19:06:50.123Z,31.30
2018-07-25T19:09:19.204Z,31.30
2018-07-25T19:11:48.346Z,31.40
2018-07-25T19:14:22.967Z,31.40
2018-07-25T19:16:52.619Z,31.40
2018-07-25T19:19:21.885Z,31.20
2018-07-25T19:21:51.008Z,31.10
2018-07-25T19:24:20.213Z,30.60
2018-07-25T19:26:50.137Z,29.70
2018-07-25T19:29:19.351Z,28.80
2018-07-25T19:31:48.617Z,28.30
2018-07-25T19:34:17.843Z,27.90
2018-07-25T19:36:47.421Z,27.70
2018-07-25T19:39:16.917Z,27.60
2018-07-25T19:41:46.015Z,27.60
2018-07-25T19:44:15.347Z,27.60
2018-07-25T19:46:44.529Z,27.70
2018-07-25T19:51:42.999Z,27.90
2018-07-25T19:54:12.327Z,28.00
2018-07-25T19:59:10.392Z,28.00
2018-07-25T20:01:39.572Z,28.10
2018-07-25T20:04:08.819Z,28.20
2018-07-25T20:06:38.006Z,28.30
2018-07-25T20:09:08.372Z,28.40
2018-07-25T20:11:37.742Z,28.50
2018-07-25T20:16:41.262Z,28.50
2018-07-25T20:19:10.543Z,28.50
2018-07-25T20:21:39.777Z,28.50
2018-07-25T20:24:09.490Z,28.50
2018-07-25T20:26:39.028Z,28.50
2018-07-25T20:29:08.525Z,28.50
2018-07-25T20:31:38.108Z,28.40
2018-07-25T20:34:07.355Z,28.50
2018-07-25T20:36:36.605Z,28.40
2018-07-25T20:39:09.499Z,28.30
2018-07-25T20:41:38.637Z,28.30
2018-07-25T20:44:08.672Z,28.20
2018-07-25T20:47:10.009Z,28.20
2018-07-25T20:52:08.389Z,28.10
2018-07-25T20:54:37.666Z,28.00
2018-07-25T20:57:10.174Z,28.00
2018-07-25T20:59:39.997Z,27.90
2018-07-25T21:02:10.055Z,27.80
2018-07-25T21:04:42.247Z,27.80
2018-07-25T21:07:11.712Z,27.60
2018-07-25T21:09:41.013Z,27.50
2018-07-25T21:14:39.035Z,27.40
2018-07-25T21:17:08.299Z,27.30
2018-07-25T21:22:06.495Z,27.10
2018-07-25T21:27:10.082Z,27.00
2018-07-25T21:29:39.395Z,26.90
2018-07-25T21:32:08.513Z,26.90
2018-07-25T21:34:37.678Z,26.80
2018-07-25T21:37:06.869Z,26.70
2018-07-25T21:39:36.070Z,26.70
2018-07-25T21:42:05.322Z,26.60
2018-07-25T21:44:34.763Z,26.60
2018-07-25T21:47:04.269Z,26.50
2018-07-25T21:49:33.485Z,26.50
2018-07-25T21:52:02.615Z,26.40
2018-07-25T21:54:32.548Z,26.30
2018-07-25T21:57:01.832Z,26.30
2018-07-25T21:59:31.089Z,26.20
2018-07-25T22:02:00.319Z,26.10
2018-07-25T22:04:29.673Z,26.10
2018-07-25T22:06:59.045Z,26.00
2018-07-25T22:09:28.154Z,26.00
2018-07-25T22:11:57.430Z,25.90
2018-07-25T22:14:26.811Z,25.80
2018-07-25T22:16:56.014Z,25.80
2018-07-25T22:22:00.661Z,25.70
2018-07-25T22:24:30.100Z,25.60
2018-07-25T22:26:59.217Z,25.60
2018-07-25T22:29:28.444Z,25.60
2018-07-25T22:31:57.736Z,25.50
2018-07-25T22:34:26.925Z,25.40
2018-07-25T22:36:56.148Z,25.40
2018-07-25T22:39:25.317Z,25.30
2018-07-25T22:41:54.814Z,25.30
2018-07-25T22:44:24.028Z,25.20
2018-07-25T22:46:53.313Z,25.20
2018-07-25T22:49:22.627Z,25.20
2018-07-25T22:51:51.956Z,25.10
2018-07-25T22:54:21.128Z,25.00
2018-07-25T22:56:50.496Z,25.00
2018-07-25T22:59:19.873Z,25.00
2018-07-25T23:01:48.987Z,24.90
2018-07-25T23:04:18.145Z,24.90
2018-07-25T23:06:47.463Z,24.80
2018-07-25T23:11:45.291Z,24.70
2018-07-25T23:14:14.679Z,24.60
2018-07-25T23:16:44.655Z,24.60
2018-07-25T23:19:13.941Z,24.50
2018-07-25T23:21:43.159Z,24.40
2018-07-25T23:24:13.015Z,24.40
2018-07-25T23:26:42.140Z,24.40
2018-07-25T23:29:11.554Z,24.30
2018-07-25T23:31:40.836Z,24.20
2018-07-25T23:34:09.931Z,24.20
2018-07-25T23:36:39.132Z,24.20
2018-07-25T23:39:09.988Z,24.10
2018-07-25T23:41:39.598Z,24.00
2018-07-25T23:44:09.003Z,24.00
2018-07-25T23:46:38.704Z,23.90
2018-07-25T23:49:08.144Z,23.90
2018-07-25T23:51:37.274Z,23.90
2018-07-25T23:54:06.578Z,24.00
2018-07-25T23:56:35.785Z,24.00
2018-07-25T23:59:05.403Z,24.00
